Time;durP1;ratioP1;P1;durP2;ratioP2;P2;SDS_P1;SDS_P2;PMS_P1;PMS_P2;Temp;Humidity;BMP_temperature;BMP_pressure;BME280_temperature;BME280_humidity;BME280_pressure;Samples;Min_cycle;Max_cycle;Signal;HPM_P1;HPM_P2
2022/08/25 00:00:35;;;;;;;24.40;17.27;;;;;;;19.01;100.00;101832.06;5054570;28;20044;-71
2022/08/25 00:03:01;;;;;;;24.20;17.20;;;;;;;19.00;100.00;101837.63;5054783;28;20033;-71
2022/08/25 00:05:28;;;;;;;33.75;20.35;;;;;;;18.97;100.00;101825.34;5054633;28;20087;-71
2022/08/25 00:07:54;;;;;;;23.40;17.40;;;;;;;18.96;100.00;101834.44;5053495;28;20492;-71
2022/08/25 00:10:20;;;;;;;27.65;16.85;;;;;;;18.94;100.00;101831.06;5053019;28;20029;-71
2022/08/25 00:12:45;;;;;;;22.88;16.17;;;;;;;18.92;100.00;101830.41;5054384;28;20419;-71
2022/08/25 00:15:11;;;;;;;26.67;17.95;;;;;;;18.90;100.00;101821.66;5055122;28;20118;-70
2022/08/25 00:17:36;;;;;;;27.23;19.15;;;;;;;18.88;100.00;101823.66;5054558;28;20175;-71
2022/08/25 00:20:04;;;;;;;22.85;16.25;;;;;;;18.85;100.00;101826.66;5053823;28;20471;-71
2022/08/25 00:22:29;;;;;;;26.98;16.40;;;;;;;18.84;100.00;101823.13;5053697;28;20479;-70
2022/08/25 00:24:54;;;;;;;30.77;21.95;;;;;;;18.80;100.00;101816.38;5054530;28;20036;-71
2022/08/25 00:27:20;;;;;;;40.10;22.48;;;;;;;18.79;100.00;101817.38;5053062;28;20120;-71
2022/08/25 00:29:46;;;;;;;27.15;18.70;;;;;;;18.78;100.00;101820.25;5054053;28;20072;-71
2022/08/25 00:32:12;;;;;;;29.08;21.13;;;;;;;18.75;100.00;101817.91;5053956;28;20036;-71
2022/08/25 00:34:37;;;;;;;24.92;18.92;;;;;;;18.75;100.00;101816.06;5053807;28;20478;-71
2022/08/25 00:37:06;;;;;;;27.27;18.27;;;;;;;18.72;100.00;101819.09;5054330;28;20025;-71
2022/08/25 00:39:32;;;;;;;27.90;17.92;;;;;;;18.67;100.00;101810.66;5053842;28;20033;-71
2022/08/25 00:41:58;;;;;;;22.65;17.25;;;;;;;18.65;100.00;101812.69;5053755;28;20028;-71
2022/08/25 00:44:26;;;;;;;22.33;17.15;;;;;;;18.63;100.00;101806.63;5054049;28;20048;-71
2022/08/25 00:46:55;;;;;;;24.25;17.52;;;;;;;18.60;100.00;101807.81;5053648;28;20029;-71
2022/08/25 00:49:46;;;;;;;22.55;17.40;;;;;;;18.58;100.00;101804.44;5054481;28;20048;-72
2022/08/25 00:52:31;;;;;;;26.30;19.27;;;;;;;18.56;100.00;101811.84;5053615;28;20060;-71
2022/08/25 00:55:06;;;;;;;21.67;16.63;;;;;;;18.53;100.00;101808.66;5053572;28;20091;-71
2022/08/25 00:57:42;;;;;;;23.70;17.38;;;;;;;18.51;100.00;101808.81;5054626;28;20132;-70
2022/08/25 01:00:16;;;;;;;26.40;18.95;;;;;;;18.50;100.00;101794.50;5054118;28;20025;-70
2022/08/25 01:02:42;;;;;;;22.40;17.48;;;;;;;18.48;100.00;101798.38;5053918;28;20032;-71
2022/08/25 01:05:08;;;;;;;29.65;21.83;;;;;;;18.48;100.00;101804.63;5053276;28;20041;-71
2022/08/25 01:07:35;;;;;;;26.25;18.45;;;;;;;18.47;100.00;101800.22;5053067;28;20116;-71
2022/08/25 01:10:02;;;;;;;30.27;21.40;;;;;;;18.46;100.00;101793.16;5053112;28;20041;-71
2022/08/25 01:12:27;;;;;;;39.28;26.00;;;;;;;18.45;100.00;101796.88;5053036;28;20115;-71
2022/08/25 01:14:54;;;;;;;28.00;21.17;;;;;;;18.44;100.00;101789.78;5053246;28;20060;-71
2022/08/25 01:17:20;;;;;;;27.77;20.08;;;;;;;18.40;100.00;101779.53;5053313;28;20029;-72
2022/08/25 01:19:46;;;;;;;28.33;21.65;;;;;;;18.38;100.00;101779.69;5052982;28;20028;-71
2022/08/25 01:22:11;;;;;;;26.40;19.85;;;;;;;18.34;100.00;101781.03;5053049;28;20060;-71
2022/08/25 01:24:45;;;;;;;36.25;25.85;;;;;;;18.30;100.00;101783.22;5052982;28;20037;-71
2022/08/25 01:27:11;;;;;;;32.88;22.17;;;;;;;18.25;100.00;101782.88;5053336;28;20525;-71
2022/08/25 01:29:38;;;;;;;30.88;22.60;;;;;;;18.22;100.00;101779.69;5052586;28;20033;-72
2022/08/25 01:32:09;;;;;;;32.13;21.20;;;;;;;18.17;100.00;101779.31;5052942;28;20037;-72
2022/08/25 01:34:37;;;;;;;33.60;24.20;;;;;;;18.13;100.00;101779.66;5053369;28;20025;-72
2022/08/25 01:37:03;;;;;;;32.75;24.73;;;;;;;18.10;100.00;101773.75;5053282;28;20025;-71
2022/08/25 01:39:32;;;;;;;29.42;22.38;;;;;;;18.08;100.00;101770.41;5053139;28;20029;-72
2022/08/25 01:42:10;;;;;;;34.47;25.45;;;;;;;18.03;100.00;101764.66;5052950;28;20025;-71
2022/08/25 01:44:38;;;;;;;44.20;30.05;;;;;;;18.01;100.00;101769.38;5052602;28;20029;-72
2022/08/25 01:47:04;;;;;;;34.15;24.42;;;;;;;17.98;100.00;101770.53;5052623;28;20041;-72
2022/08/25 01:49:31;;;;;;;48.10;31.35;;;;;;;17.95;100.00;101766.31;5052467;28;20111;-72
2022/08/25 01:52:05;;;;;;;34.75;25.10;;;;;;;17.94;100.00;101763.81;5052971;28;20033;-72
2022/08/25 01:54:31;;;;;;;32.50;24.52;;;;;;;17.91;100.00;101764.13;5052628;28;20032;-72
2022/08/25 01:56:57;;;;;;;39.10;26.73;;;;;;;17.89;100.00;101755.34;5052940;28;20481;-72
2022/08/25 01:59:24;;;;;;;40.00;29.02;;;;;;;17.86;100.00;101761.06;5052463;28;20040;-79
2022/08/25 02:01:50;;;;;;;29.42;20.25;;;;;;;17.83;100.00;101764.09;5052291;28;20067;-71
2022/08/25 02:04:16;;;;;;;41.90;27.55;;;;;;;17.81;100.00;101764.25;5052362;28;20037;-72
2022/08/25 02:06:41;;;;;;;48.90;34.40;;;;;;;17.80;100.00;101759.88;5052509;28;20100;-71
2022/08/25 02:09:16;;;;;;;43.10;30.30;;;;;;;17.78;100.00;101759.22;5052516;28;20051;-71
2022/08/25 02:11:44;;;;;;;39.17;28.13;;;;;;;17.76;100.00;101753.97;5053040;28;20037;-71
2022/08/25 02:14:10;;;;;;;44.92;31.10;;;;;;;17.73;100.00;101750.78;5052263;28;20037;-71
2022/08/25 02:16:39;;;;;;;46.20;30.60;;;;;;;17.75;100.00;101754.13;5052367;28;20037;-71
2022/08/25 02:19:07;;;;;;;37.83;27.65;;;;;;;17.71;100.00;101755.50;5052070;28;20029;-71
2022/08/25 02:21:32;;;;;;;37.83;27.40;;;;;;;17.70;100.00;101761.88;5052287;28;20032;-72
2022/08/25 02:23:58;;;;;;;30.98;23.05;;;;;;;17.66;100.00;101760.50;5052292;28;20041;-71
2022/08/25 02:26:23;;;;;;;46.05;33.20;;;;;;;17.68;100.00;101761.19;5052350;28;20091;-71
2022/08/25 02:28:51;;;;;;;35.08;26.02;;;;;;;17.66;100.00;101761.34;5052171;28;20429;-72
2022/08/25 02:31:19;;;;;;;35.33;25.92;;;;;;;17.62;100.00;101752.75;5051538;28;20123;-71
2022/08/25 02:33:44;;;;;;;34.13;25.73;;;;;;;17.60;100.00;101752.09;5051906;28;20441;-72
2022/08/25 02:36:10;;;;;;;34.80;26.52;;;;;;;17.62;100.00;101750.06;5052248;28;20029;-71
2022/08/25 02:38:36;;;;;;;32.13;23.17;;;;;;;17.60;100.00;101751.22;5052077;28;20025;-72
2022/08/25 02:41:12;;;;;;;33.88;24.10;;;;;;;17.60;100.00;101741.31;5051140;28;20021;-72
2022/08/25 02:43:39;;;;;;;35.40;24.48;;;;;;;17.60;100.00;101738.63;5052605;28;20036;-71
2022/08/25 02:46:05;;;;;;;37.20;26.58;;;;;;;17.59;100.00;101731.56;5051856;28;20036;-71
2022/08/25 02:48:30;;;;;;;28.20;21.33;;;;;;;17.57;100.00;101738.09;5050376;28;20057;-72
2022/08/25 02:50:59;;;;;;;44.13;30.08;;;;;;;17.58;100.00;101732.56;5053532;28;20037;-72
2022/08/25 02:53:25;;;;;;;43.00;30.85;;;;;;;17.60;100.00;101729.69;5055737;28;20033;-72
2022/08/25 02:55:50;;;;;;;35.60;26.55;;;;;;;17.56;100.00;101723.81;5055971;28;20486;-72
2022/08/25 02:58:15;;;;;;;34.38;24.58;;;;;;;17.53;100.00;101723.31;5055696;28;20095;-72
2022/08/25 03:00:41;;;;;;;34.55;26.17;;;;;;;17.50;100.00;101723.63;5055624;28;20079;-71
2022/08/25 03:03:06;;;;;;;35.53;24.88;;;;;;;17.49;100.00;101727.31;5054333;28;20028;-71
2022/08/25 03:05:32;;;;;;;28.50;22.38;;;;;;;17.44;100.00;101720.59;5055893;28;20451;-72
2022/08/25 03:07:58;;;;;;;40.25;28.17;;;;;;;17.41;100.00;101720.06;5055575;28;20431;-72
2022/08/25 03:10:24;;;;;;;29.60;22.25;;;;;;;17.36;100.00;101715.19;5055456;28;20131;-72
2022/08/25 03:12:49;;;;;;;38.03;26.40;;;;;;;17.36;100.00;101714.31;5055369;28;20432;-72
2022/08/25 03:15:16;;;;;;;35.47;27.08;;;;;;;17.32;100.00;101713.00;5055387;28;20040;-71
2022/08/25 03:17:42;;;;;;;46.28;31.83;;;;;;;17.28;100.00;101707.06;5056016;28;20525;-72
2022/08/25 03:20:08;;;;;;;43.08;29.73;;;;;;;17.25;100.00;101704.72;5054133;28;20041;-72
2022/08/25 03:22:34;;;;;;;35.83;26.10;;;;;;;17.24;100.00;101700.31;5055169;28;20582;-72
2022/08/25 03:27:44;;;;;;;31.63;24.20;;;;;;;17.21;100.00;101701.50;5055250;28;20422;-71
2022/08/25 03:30:10;;;;;;;33.97;25.33;;;;;;;17.18;100.00;101698.28;5054023;28;20041;-71
2022/08/25 03:32:36;;;;;;;43.25;29.13;;;;;;;17.15;100.00;101691.38;5055123;28;20025;-72
2022/08/25 03:35:03;;;;;;;48.63;33.85;;;;;;;17.17;100.00;101685.88;5055170;28;20037;-71
2022/08/25 03:37:28;;;;;;;44.53;30.17;;;;;;;17.14;100.00;101694.22;5055064;28;20380;-71
2022/08/25 03:39:54;;;;;;;41.00;29.73;;;;;;;17.09;100.00;101687.50;5054598;28;20029;-71
2022/08/25 03:42:19;;;;;;;45.53;31.92;;;;;;;17.05;100.00;101680.78;5055085;28;20044;-71
2022/08/25 03:44:44;;;;;;;42.30;30.08;;;;;;;17.03;100.00;101674.72;5054631;28;20051;-71
2022/08/25 03:47:10;;;;;;;43.25;32.53;;;;;;;16.99;100.00;101667.97;5054726;28;20494;-71
2022/08/25 03:49:35;;;;;;;38.53;28.58;;;;;;;16.98;100.00;101670.81;5054998;28;20171;-73
2022/08/25 03:52:01;;;;;;;39.75;28.63;;;;;;;16.93;100.00;101660.56;5054560;28;20029;-71
2022/08/25 03:54:27;;;;;;;33.55;24.80;;;;;;;16.90;100.00;101664.41;5055154;28;20033;-71
2022/08/25 03:56:53;;;;;;;48.13;33.33;;;;;;;16.87;100.00;101655.84;5054520;28;20029;-71
2022/08/25 03:59:18;;;;;;;52.15;35.00;;;;;;;16.84;100.00;101665.03;5054757;28;20040;-71
2022/08/25 04:01:45;;;;;;;38.92;28.15;;;;;;;16.83;100.00;101660.63;5054349;28;20028;-70
2022/08/25 04:04:13;;;;;;;38.95;27.98;;;;;;;16.83;100.00;101655.25;5054906;28;20037;-71
2022/08/25 04:06:40;;;;;;;34.30;26.65;;;;;;;16.81;100.00;101665.34;5054408;28;20145;-72
2022/08/25 04:09:07;;;;;;;34.25;26.15;;;;;;;16.81;100.00;101657.28;5053109;28;20040;-72
2022/08/25 04:11:32;;;;;;;39.45;28.38;;;;;;;16.79;100.00;101648.50;5054676;28;20517;-71
2022/08/25 04:14:00;;;;;;;26.98;21.25;;;;;;;16.77;100.00;101642.47;5054275;28;20037;-71
2022/08/25 04:16:29;;;;;;;50.58;33.97;;;;;;;16.74;100.00;101646.31;5054144;28;20044;-71
2022/08/25 04:18:55;;;;;;;36.17;26.55;;;;;;;16.72;100.00;101651.00;5053101;28;20057;-71
2022/08/25 04:21:22;;;;;;;29.05;23.27;;;;;;;16.72;100.00;101650.19;5054011;28;20486;-72
2022/08/25 04:23:48;;;;;;;42.42;29.17;;;;;;;16.68;100.00;101638.91;5053972;28;20074;-72
2022/08/25 04:26:18;;;;;;;37.10;26.48;;;;;;;16.67;100.00;101642.56;5054026;28;20036;-71
2022/08/25 04:28:45;;;;;;;37.03;27.98;;;;;;;16.66;100.00;101651.66;5053901;28;20033;-72
2022/08/25 04:31:13;;;;;;;33.67;22.67;;;;;;;16.66;100.00;101648.09;5054799;28;20036;-71
2022/08/25 04:33:39;;;;;;;30.35;23.38;;;;;;;16.63;100.00;101643.06;5053878;28;20086;-71
2022/08/25 04:36:06;;;;;;;32.00;23.60;;;;;;;16.61;100.00;101650.44;5053499;28;20041;-71
2022/08/25 04:38:32;;;;;;;27.77;22.65;;;;;;;16.57;100.00;101652.63;5053768;28;20029;-71
2022/08/25 04:40:59;;;;;;;32.75;25.05;;;;;;;16.55;100.00;101655.44;5053649;28;20032;-71
2022/08/25 04:43:25;;;;;;;37.83;27.55;;;;;;;16.54;100.00;101653.78;5054449;28;20110;-71
2022/08/25 04:45:51;;;;;;;38.55;28.63;;;;;;;16.54;100.00;101652.91;5053545;28;20040;-72
2022/08/25 04:48:17;;;;;;;42.30;28.30;;;;;;;16.54;100.00;101647.53;5035403;28;20552;-72
2022/08/25 04:50:43;;;;;;;30.50;23.48;;;;;;;16.55;100.00;101651.91;5053849;28;20490;-73
2022/08/25 04:53:10;;;;;;;30.67;20.40;;;;;;;16.53;100.00;101651.25;5053125;28;20072;-72
2022/08/25 04:55:41;;;;;;;34.67;24.85;;;;;;;16.54;100.00;101655.59;5053124;28;20439;-72
2022/08/25 04:58:07;;;;;;;32.08;24.92;;;;;;;16.55;100.00;101651.91;5053494;28;20072;-72
2022/08/25 05:00:34;;;;;;;36.03;26.67;;;;;;;16.53;100.00;101657.44;5053614;28;20055;-72
2022/08/25 05:03:00;;;;;;;32.03;25.35;;;;;;;16.52;100.00;101655.75;5052955;28;20489;-72
2022/08/25 05:05:26;;;;;;;45.97;30.40;;;;;;;16.53;100.00;101660.13;5053282;28;20116;-72
2022/08/25 05:07:51;;;;;;;35.13;26.35;;;;;;;16.53;100.00;101660.13;5053124;28;20037;-74
2022/08/25 05:10:17;;;;;;;34.90;26.30;;;;;;;16.56;100.00;101664.34;5053442;28;20028;-74
2022/08/25 05:12:42;;;;;;;38.90;28.67;;;;;;;16.59;100.00;101657.84;5051670;28;20227;-75
2022/08/25 05:17:52;;;;;;;30.08;24.17;;;;;;;16.60;100.00;101663.03;5053297;28;20130;-75
2022/08/25 05:20:17;;;;;;;29.80;23.55;;;;;;;16.62;100.00;101666.41;5053036;28;20037;-74
2022/08/25 05:22:45;;;;;;;34.30;26.40;;;;;;;16.66;100.00;101661.53;5051653;28;20127;-74
2022/08/25 05:25:11;;;;;;;32.00;24.20;;;;;;;16.68;100.00;101662.25;5053502;28;20036;-74
2022/08/25 05:27:36;;;;;;;35.53;27.15;;;;;;;16.71;100.00;101664.63;5053746;28;20051;-74
2022/08/25 05:30:03;;;;;;;39.20;27.30;;;;;;;16.75;100.00;101663.28;5052872;28;20033;-73
2022/08/25 05:32:28;;;;;;;35.22;24.48;;;;;;;16.77;100.00;101661.28;5053282;28;20032;-72
2022/08/25 05:34:53;;;;;;;31.17;24.55;;;;;;;16.79;100.00;101661.13;5052863;28;20033;-73
2022/08/25 05:37:19;;;;;;;34.50;25.08;;;;;;;16.80;100.00;101666.34;5052586;28;20044;-72
2022/08/25 05:39:44;;;;;;;35.28;26.45;;;;;;;16.84;100.00;101666.84;5052724;28;20605;-72
2022/08/25 05:42:09;;;;;;;37.42;26.92;;;;;;;16.87;100.00;101661.22;5052544;28;20032;-72
2022/08/25 05:44:35;;;;;;;28.48;22.48;;;;;;;16.91;100.00;101665.22;5052992;28;20481;-72
2022/08/25 05:47:00;;;;;;;32.45;24.50;;;;;;;16.97;100.00;101671.81;5053158;28;20025;-72
2022/08/25 05:49:26;;;;;;;35.42;24.75;;;;;;;17.04;100.00;101667.50;5052974;28;20142;-71
2022/08/25 05:51:51;;;;;;;28.35;23.10;;;;;;;17.09;100.00;101674.06;5052412;28;20347;-72
2022/08/25 05:54:17;;;;;;;29.92;22.90;;;;;;;17.15;100.00;101671.72;5051002;28;20031;-71
2022/08/25 05:56:44;;;;;;;27.70;22.48;;;;;;;17.18;100.00;101674.94;5053019;28;20513;-72
2022/08/25 05:59:09;;;;;;;27.67;21.83;;;;;;;17.19;100.00;101665.84;5052046;28;20089;-73
2022/08/25 06:04:19;;;;;;;27.40;21.10;;;;;;;17.25;100.00;101667.88;5052565;28;20098;-71
2022/08/25 06:06:44;;;;;;;28.38;20.20;;;;;;;17.27;100.00;101667.72;5052373;28;20041;-72
2022/08/25 06:09:10;;;;;;;23.83;18.23;;;;;;;17.31;100.00;101665.56;5052610;28;20033;-72
2022/08/25 06:11:38;;;;;;;25.50;19.17;;;;;;;17.33;100.00;101664.41;5052254;28;20490;-72
2022/08/25 06:14:04;;;;;;;22.98;17.08;;;;;;;17.36;100.00;101665.91;5052338;28;20033;-72
2022/08/25 06:16:29;;;;;;;26.30;18.30;;;;;;;17.39;100.00;101657.50;5052408;28;20029;-71
2022/08/25 06:18:55;;;;;;;23.15;18.48;;;;;;;17.41;100.00;101655.53;5052768;28;20119;-72
2022/08/25 06:21:20;;;;;;;21.15;17.30;;;;;;;17.43;100.00;101646.25;5052216;28;20029;-72
2022/08/25 06:23:45;;;;;;;24.05;17.30;;;;;;;17.47;100.00;101648.66;5052280;28;20037;-72
2022/08/25 06:26:12;;;;;;;23.95;17.55;;;;;;;17.51;100.00;101650.84;5054281;28;20052;-72
2022/08/25 06:28:37;;;;;;;20.40;16.27;;;;;;;17.57;100.00;101652.00;5056561;28;20033;-72
2022/08/25 06:31:03;;;;;;;20.02;15.75;;;;;;;17.65;100.00;101646.66;5056144;28;20414;-71
2022/08/25 06:33:29;;;;;;;20.85;15.40;;;;;;;17.74;100.00;101648.34;5056431;28;20028;-72
2022/08/25 06:35:55;;;;;;;19.20;15.80;;;;;;;17.88;100.00;101652.19;5054694;28;20467;-72
2022/08/25 06:38:21;;;;;;;18.80;14.75;;;;;;;18.09;100.00;101656.28;5054965;28;20028;-72
2022/08/25 06:40:48;;;;;;;25.20;14.07;;;;;;;18.34;100.00;101651.72;5054834;28;20431;-72
2022/08/25 06:43:14;;;;;;;18.45;13.20;;;;;;;18.63;100.00;101661.09;5054317;28;20029;-72
2022/08/25 06:45:40;;;;;;;15.90;11.60;;;;;;;18.97;100.00;101655.47;5056137;28;20028;-72
2022/08/25 06:48:05;;;;;;;18.17;11.10;;;;;;;19.31;100.00;101650.75;5056038;28;20106;-72
2022/08/25 06:50:30;;;;;;;13.45;10.30;;;;;;;19.58;100.00;101649.38;5055956;28;20360;-71
2022/08/25 06:52:56;;;;;;;14.50;9.98;;;;;;;19.87;100.00;101648.72;5055811;28;20382;-77
2022/08/25 06:55:21;;;;;;;16.50;9.82;;;;;;;20.16;100.00;101657.91;5055968;28;20463;-72
2022/08/25 06:57:47;;;;;;;14.52;9.55;;;;;;;20.36;100.00;101639.34;5054643;28;20505;-72
2022/08/25 07:00:12;;;;;;;14.02;9.65;;;;;;;20.59;100.00;101641.94;5055685;28;20040;-72
2022/08/25 07:02:38;;;;;;;13.80;9.05;;;;;;;20.87;100.00;101643.16;5055674;28;20470;-72
2022/08/25 07:05:05;;;;;;;12.80;8.40;;;;;;;21.06;100.00;101636.34;5054131;28;20029;-72
2022/08/25 07:07:30;;;;;;;13.43;8.95;;;;;;;21.18;100.00;101639.41;5054192;28;20033;-72
2022/08/25 07:09:56;;;;;;;13.52;8.80;;;;;;;21.34;100.00;101638.34;5055906;28;20043;-72
2022/08/25 07:12:23;;;;;;;15.95;9.18;;;;;;;21.52;98.34;101637.94;5055129;28;20549;-72
2022/08/25 07:14:48;;;;;;;14.35;9.00;;;;;;;21.77;96.04;101636.53;5055442;28;20485;-72
2022/08/25 07:17:14;;;;;;;10.90;8.25;;;;;;;21.99;93.65;101639.22;5055402;28;20036;-71
2022/08/25 07:19:40;;;;;;;12.20;7.60;;;;;;;22.17;89.71;101631.44;5054085;28;20082;-72
2022/08/25 07:22:05;;;;;;;12.88;8.38;;;;;;;22.29;87.72;101631.75;5054206;28;20039;-71
2022/08/25 07:24:30;;;;;;;19.70;8.13;;;;;;;22.32;84.92;101646.81;5055058;28;20025;-72
2022/08/25 07:26:56;;;;;;;10.85;7.60;;;;;;;22.40;83.79;101637.69;5055256;28;20463;-72
2022/08/25 07:29:24;;;;;;;14.73;7.50;;;;;;;22.55;85.51;101635.69;5055216;28;20474;-72
2022/08/25 07:31:50;;;;;;;12.98;8.27;;;;;;;22.60;81.59;101632.38;5055175;28;20530;-72
2022/08/25 07:37:03;;;;;;;10.13;8.43;;;;;;;22.70;80.22;101638.28;5054659;28;20051;-72
2022/08/25 07:39:28;;;;;;;11.75;7.97;;;;;;;22.63;79.53;101640.97;5055048;28;20053;-73
2022/08/25 07:41:54;;;;;;;15.63;8.25;;;;;;;22.65;79.95;101638.88;5054734;28;20068;-72
2022/08/25 07:44:21;;;;;;;12.23;7.60;;;;;;;22.60;79.17;101632.38;5054110;28;20029;-72
2022/08/25 07:46:47;;;;;;;10.25;7.57;;;;;;;22.60;80.34;101626.94;5054947;28;20463;-72
2022/08/25 07:49:12;;;;;;;12.88;8.07;;;;;;;22.57;80.41;101635.47;5055419;28;20049;-72
2022/08/25 07:51:37;;;;;;;13.52;7.82;;;;;;;22.56;79.20;101628.38;5053560;28;20360;-72
2022/08/25 07:54:04;;;;;;;11.63;7.07;;;;;;;22.61;79.43;101639.47;5054715;28;20032;-73
2022/08/25 07:56:30;;;;;;;11.77;7.35;;;;;;;22.68;76.84;101629.50;5055252;28;20043;-73
2022/08/25 07:58:55;;;;;;;10.45;7.30;;;;;;;22.84;76.57;101637.31;5054749;28;20386;-72
2022/08/25 08:01:23;;;;;;;14.55;6.75;;;;;;;23.09;79.11;101631.34;5054915;28;20121;-72
2022/08/25 08:03:49;;;;;;;11.05;5.97;;;;;;;23.41;77.30;101635.25;5054415;28;20514;-72
2022/08/25 08:06:19;;;;;;;10.20;6.32;;;;;;;23.75;73.44;101638.84;5054253;28;20094;-72
2022/08/25 08:08:48;;;;;;;17.60;6.60;;;;;;;23.96;69.24;101637.03;5055063;28;20036;-72
2022/08/25 08:11:25;;;;;;;10.63;6.38;;;;;;;24.33;69.22;101637.41;5054032;28;20044;-72
2022/08/25 08:13:51;;;;;;;22.98;6.57;;;;;;;24.64;66.06;101646.78;5053795;28;20112;-73
2022/08/25 08:16:18;;;;;;;8.20;5.93;;;;;;;24.95;65.99;101640.59;5053029;28;20048;-72
2022/08/25 08:18:45;;;;;;;12.57;6.18;;;;;;;25.37;63.30;101642.13;5051811;28;20032;-72
2022/08/25 08:21:12;;;;;;;10.35;5.68;;;;;;;25.87;62.91;101632.13;5053462;28;20459;-73
2022/08/25 08:23:38;;;;;;;11.77;5.68;;;;;;;26.34;61.21;101644.53;5053413;28;20109;-72
2022/08/25 08:26:04;;;;;;;12.38;5.47;;;;;;;26.77;59.33;101640.97;5053702;28;20035;-72
2022/08/25 08:28:30;;;;;;;18.35;5.35;;;;;;;27.12;57.49;101644.94;5051831;28;20033;-72
2022/08/25 08:30:55;;;;;;;8.15;5.80;;;;;;;27.26;54.84;101638.25;5053351;28;20033;-72
2022/08/25 08:33:22;;;;;;;13.10;5.53;;;;;;;27.39;53.03;101642.69;5053487;28;20064;-72
2022/08/25 08:35:54;;;;;;;12.65;6.00;;;;;;;27.40;52.44;101645.19;5051741;28;20055;-72
2022/08/25 08:38:20;;;;;;;11.35;5.28;;;;;;;27.13;51.95;101650.16;5053058;28;20033;-73
2022/08/25 08:44:09;;;;;;;10.45;4.97;;;;;;;26.33;57.35;101637.41;5053005;28;20035;-72
2022/08/25 08:46:58;;;;;;;;;;;;;;;26.16;57.90;101639.88;5053535;28;20048;-72
2022/08/25 08:49:54;;;;;;;9.40;4.88;;;;;;;26.13;58.86;101641.16;5043853;28;19943;-73
2022/08/25 08:52:28;;;;;;;6.65;4.40;;;;;;;26.08;61.18;101637.44;5052714;28;20101;-72
2022/08/25 08:55:00;;;;;;;11.77;4.60;;;;;;;25.95;57.73;101633.75;5052853;28;20093;-72
2022/08/25 08:57:27;;;;;;;13.68;4.68;;;;;;;25.83;57.92;101636.34;5052964;28;20029;-72
2022/08/25 09:00:01;;;;;;;9.50;4.47;;;;;;;25.83;58.89;101647.25;5053206;28;20071;-73
2022/08/25 09:02:54;;;;;;;8.80;4.00;;;;;;;25.98;59.17;101633.28;5051333;28;20032;-73
2022/08/25 09:05:23;;;;;;;11.38;4.22;;;;;;;26.44;58.40;101625.75;5053040;28;20112;-72
2022/08/25 09:08:02;;;;;;;12.60;4.80;;;;;;;27.07;56.92;101627.34;5052983;28;20065;-72
2022/08/25 09:10:39;;;;;;;13.18;4.45;;;;;;;28.27;53.81;101632.03;5053495;28;20111;-73
2022/08/25 09:13:35;;;;;;;8.88;3.67;;;;;;;29.22;47.91;101629.97;5052655;28;20079;-72
2022/08/25 09:19:46;;;;;;;4.97;3.25;;;;;;;32.48;40.01;101623.50;5052355;28;20071;-73
2022/08/25 09:22:30;;;;;;;7.13;3.30;;;;;;;33.05;38.53;101623.72;5051140;28;20451;-77
2022/08/25 09:25:29;;;;;;;8.27;3.38;;;;;;;33.99;35.90;101625.47;5051880;28;20033;-72
2022/08/25 09:28:18;;;;;;;5.18;3.05;;;;;;;34.75;34.39;101612.56;5024720;28;20162;-72
2022/08/25 09:31:04;;;;;;;7.30;2.80;;;;;;;35.53;31.54;101610.97;5053266;28;20316;-72
2022/08/25 09:33:33;;;;;;;6.80;3.15;;;;;;;36.18;32.05;101610.63;5053383;28;20475;-72
2022/08/25 09:35:59;;;;;;;6.88;3.17;;;;;;;36.48;30.74;101602.28;5053047;28;20029;-72
2022/08/25 09:38:27;;;;;;;8.13;2.78;;;;;;;36.69;30.13;101616.69;5052873;28;20035;-72
2022/08/25 09:40:56;;;;;;;12.68;3.08;;;;;;;36.51;29.02;101604.47;5053603;28;20064;-72
2022/08/25 09:43:28;;;;;;;11.95;2.85;;;;;;;36.17;28.21;101599.84;5052085;28;20029;-72
2022/08/25 09:45:59;;;;;;;4.72;2.90;;;;;;;36.72;27.69;101597.50;5053309;28;20037;-72
2022/08/25 09:48:36;;;;;;;11.35;2.90;;;;;;;36.41;28.92;101608.16;5053014;28;20084;-72
2022/08/25 09:51:16;;;;;;;10.90;2.70;;;;;;;36.36;28.75;101608.25;5052971;28;20103;-71
2022/08/25 09:53:50;;;;;;;8.10;3.55;;;;;;;36.75;28.87;101600.81;5053097;28;20374;-72
2022/08/25 09:56:20;;;;;;;7.93;2.85;;;;;;;37.34;28.71;101604.97;5053373;28;20083;-72
2022/08/25 09:58:45;;;;;;;12.02;2.95;;;;;;;37.28;27.57;101605.34;5053112;28;20033;-72
2022/08/25 10:01:19;;;;;;;9.98;2.90;;;;;;;37.40;28.17;101600.16;5052777;28;20104;-73
2022/08/25 10:04:00;;;;;;;12.05;3.00;;;;;;;37.47;27.64;101597.00;5053175;28;20035;-71
2022/08/25 10:06:36;;;;;;;5.32;3.05;;;;;;;37.66;27.10;101594.97;5053506;28;20021;-72
2022/08/25 10:09:06;;;;;;;6.70;2.65;;;;;;;37.73;26.42;101591.84;5053560;28;20052;-72
2022/08/25 10:11:40;;;;;;;5.03;2.40;;;;;;;37.61;24.41;101585.91;5052973;28;20116;-72
2022/08/25 10:14:26;;;;;;;10.82;2.63;;;;;;;37.19;25.16;101585.75;5052301;28;20029;-73
2022/08/25 10:17:09;;;;;;;6.05;2.60;;;;;;;36.79;25.47;101588.88;5052743;28;20037;-72
2022/08/25 10:19:34;;;;;;;8.13;2.28;;;;;;;36.59;24.67;101587.19;5052653;28;20045;-72
2022/08/25 10:22:10;;;;;;;6.68;2.40;;;;;;;36.52;26.54;101578.41;5052978;28;20029;-72
2022/08/25 10:24:36;;;;;;;10.07;2.58;;;;;;;35.96;27.20;101583.44;5052770;28;20025;-72
2022/08/25 10:27:05;;;;;;;9.75;2.50;;;;;;;36.23;25.69;101581.22;5052872;28;20043;-72
2022/08/25 10:29:42;;;;;;;5.85;2.60;;;;;;;36.64;25.27;101578.78;5053019;28;20032;-72
2022/08/25 10:32:17;;;;;;;6.45;2.60;;;;;;;36.85;25.74;101575.75;5052688;28;20029;-72
2022/08/25 10:34:56;;;;;;;5.88;2.40;;;;;;;37.30;26.73;101569.81;5052694;28;20029;-72
2022/08/25 10:37:22;;;;;;;7.55;2.55;;;;;;;37.09;24.53;101575.66;5052987;28;20060;-82
2022/08/25 10:40:01;;;;;;;14.57;2.50;;;;;;;37.01;24.01;101574.41;5052414;28;20069;-72
2022/08/25 10:42:41;;;;;;;6.32;2.70;;;;;;;36.93;25.06;101563.97;5052626;28;20208;-72
2022/08/25 10:48:26;;;;;;;4.47;2.42;;;;;;;37.62;24.03;101554.28;5052122;28;20100;-72
2022/08/25 10:51:00;;;;;;;6.10;2.65;;;;;;;37.69;22.41;101546.38;5052378;28;20121;-72
2022/08/25 10:53:25;;;;;;;8.93;2.67;;;;;;;38.42;22.88;101536.31;5052720;28;20108;-73
2022/08/25 10:55:54;;;;;;;9.88;2.63;;;;;;;38.65;22.81;101543.91;5052226;28;20454;-72
2022/08/25 10:58:40;;;;;;;9.90;2.70;;;;;;;38.98;23.98;101539.78;5051830;28;20025;-72
2022/08/25 11:01:05;;;;;;;7.18;2.78;;;;;;;39.17;22.61;101536.00;5052448;28;20163;-72
2022/08/25 11:03:53;;;;;;;11.23;2.50;;;;;;;38.96;20.69;101539.25;5052850;28;20108;-72
2022/08/25 11:06:25;;;;;;;6.78;2.88;;;;;;;37.59;23.33;101547.38;5052157;28;20064;-72
2022/08/25 11:08:56;;;;;;;10.82;2.92;;;;;;;36.15;25.34;101543.94;5050859;28;20033;-72
2022/08/25 11:11:30;;;;;;;4.47;2.78;;;;;;;35.21;26.68;101545.13;5053329;28;20057;-72
2022/08/25 11:14:04;;;;;;;3.70;1.92;;;;;;;34.36;26.93;101553.34;5055508;28;20040;-72
2022/08/25 11:16:42;;;;;;;7.35;2.28;;;;;;;33.86;28.72;101553.22;5056187;28;20033;-72
2022/08/25 11:19:29;;;;;;;16.05;2.50;;;;;;;33.68;28.43;101549.06;5055496;28;20044;-72
2022/08/25 11:22:09;;;;;;;6.20;2.33;;;;;;;34.50;26.42;101547.19;5055623;28;20435;-72
2022/08/25 11:24:58;;;;;;;7.53;2.20;;;;;;;35.73;25.28;101539.97;5054122;28;20466;-72
2022/08/25 11:27:37;;;;;;;9.13;2.60;;;;;;;36.72;25.21;101535.72;5055463;28;20108;-72
2022/08/25 11:30:11;;;;;;;4.85;2.13;;;;;;;37.89;20.97;101539.63;5055875;28;20064;-72
2022/08/25 11:32:38;;;;;;;6.30;2.20;;;;;;;38.57;19.49;101540.69;5054729;28;20036;-72
2022/08/25 11:35:07;;;;;;;7.10;2.30;;;;;;;39.07;20.78;101541.78;5055645;28;20037;-72
2022/08/25 11:37:33;;;;;;;7.10;2.53;;;;;;;39.09;19.41;101545.09;5055083;28;20029;-73